Time;durP1;ratioP1;P1;durP2;ratioP2;P2;SDS_P1;SDS_P2;PMS_P1;PMS_P2;Temp;Humidity;BMP_temperature;BMP_pressure;BME280_temperature;BME280_humidity;BME280_pressure;Samples;Min_cycle;Max_cycle;Signal;HPM_P1;HPM_P2
2022/03/29 00:01:15;;;;;;;;;;;;;;;8.54;100.00;101921.00;5118927;27;19922;-68
2022/03/29 00:03:40;;;;;;;;;;;;;;;8.65;100.00;101904.94;5118641;27;19916;-69
2022/03/29 00:06:06;;;;;;;;;;;;;;;8.66;100.00;101904.91;5113497;28;19916;-68
2022/03/29 00:08:31;;;;;;;;;;;;;;;8.55;100.00;101896.28;5116550;28;19998;-69
2022/03/29 00:10:56;;;;;;;;;;;;;;;8.58;100.00;101887.41;5101764;27;19976;-69
2022/03/29 00:13:21;;;;;;;;;;;;;;;8.61;100.00;101888.22;5118793;27;19915;-68
2022/03/29 00:15:47;;;;;;;;;;;;;;;8.62;100.00;101886.47;5136781;27;19946;-69
2022/03/29 00:18:12;;;;;;;;;;;;;;;8.65;100.00;101878.47;5136766;27;19936;-69
2022/03/29 00:20:37;;;;;;;;;;;;;;;8.53;100.00;101870.72;5118076;27;20355;-68
2022/03/29 00:23:03;;;;;;;;;;;;;;;8.39;100.00;101865.69;5125041;27;19919;-69
2022/03/29 00:25:28;;;;;;;;;;;;;;;8.41;100.00;101863.88;5136633;27;19915;-69
2022/03/29 00:27:54;;;;;;;;;;;;;;;8.47;100.00;101861.13;5128359;27;20386;-68
2022/03/29 00:30:20;;;;;;;;;;;;;;;8.46;100.00;101862.00;5136387;27;19915;-69
2022/03/29 00:32:45;;;;;;;;;;;;;;;8.38;100.00;101858.66;5118228;27;20242;-68
2022/03/29 00:35:10;;;;;;;;;;;;;;;8.38;100.00;101842.78;5136409;27;20374;-70
2022/03/29 00:37:36;;;;;;;;;;;;;;;8.39;100.00;101844.50;5127355;27;19916;-68
2022/03/29 00:40:03;;;;;;;;;;;;;;;8.47;100.00;101845.25;5119894;27;19919;-68
2022/03/29 00:42:28;;;;;;;;;;;;;;;8.50;100.00;101845.19;5136460;27;20374;-68
2022/03/29 00:44:55;;;;;;;;;;;;;;;8.43;100.00;101830.31;5117849;27;19915;-69
2022/03/29 00:47:20;;;;;;;;;;;;;;;8.57;100.00;101830.91;5116720;27;20004;-69
2022/03/29 00:49:45;;;;;;;;;;;;;;;8.47;100.00;101831.13;5125955;27;19915;-69
2022/03/29 00:52:11;;;;;;;;;;;;;;;8.54;100.00;101833.63;5112201;28;19938;-68
2022/03/29 00:54:38;;;;;;;;;;;;;;;8.52;100.00;101830.16;5115670;28;19916;-69
2022/03/29 00:57:04;;;;;;;;;;;;;;;8.54;100.00;101822.19;5115612;28;20279;-68
2022/03/29 00:59:29;;;;;;;;;;;;;;;8.50;100.00;101825.78;5115647;28;19968;-68
2022/03/29 01:01:57;;;;;;;;;;;;;;;8.53;100.00;101831.00;5117520;27;19924;-68
2022/03/29 01:04:22;;;;;;;;;;;;;;;8.61;100.00;101829.97;5118945;27;19916;-68
2022/03/29 01:06:48;;;;;;;;;;;;;;;8.61;100.00;101834.38;5116668;27;20038;-68
2022/03/29 01:09:13;;;;;;;;;;;;;;;8.62;100.00;101829.06;5124361;27;19915;-68
2022/03/29 01:11:38;;;;;;;;;;;;;;;8.60;100.00;101822.94;5117297;27;19916;-68
2022/03/29 01:14:03;;;;;;;;;;;;;;;8.64;100.00;101813.13;5135577;27;19915;-69
2022/03/29 01:19:16;;;;;;;;;;;;;;;8.62;100.00;101807.88;5135957;27;20011;-68
2022/03/29 01:21:42;;;;;;;;;;;;;;;8.57;100.00;101807.09;5135521;27;19922;-69
2022/03/29 01:24:11;;;;;;;;;;;;;;;8.65;100.00;101794.56;5135371;27;19930;-69
2022/03/29 01:29:50;;;;;;;;;;;;;;;8.58;100.00;101785.03;5117509;27;19923;-69
2022/03/29 01:32:16;;;;;;;;;;;;;;;8.65;100.00;101783.13;5114916;28;19915;-69
2022/03/29 01:34:42;;;;;;;;;;;;;;;8.60;100.00;101785.88;5096865;28;19990;-68
2022/03/29 01:37:08;;;;;;;;;;;;;;;8.69;100.00;101779.50;5117054;28;19920;-68
2022/03/29 01:39:34;;;;;;;;;;;;;;;8.55;100.00;101774.50;5116791;27;19938;-69
2022/03/29 01:41:59;;;;;;;;;;;;;;;8.58;100.00;101774.44;5135290;27;20006;-68
2022/03/29 01:44:25;;;;;;;;;;;;;;;8.55;100.00;101777.13;5135334;27;19922;-68
2022/03/29 01:46:50;;;;;;;;;;;;;;;8.53;100.00;101776.28;5135121;27;20431;-69
2022/03/29 01:49:16;;;;;;;;;;;;;;;8.54;100.00;101766.59;5116499;27;19915;-69
2022/03/29 01:51:41;;;;;;;;;;;;;;;8.57;100.00;101772.66;5116689;27;19916;-69
2022/03/29 01:54:06;;;;;;;;;;;;;;;8.57;100.00;101766.50;5135088;27;19915;-68
2022/03/29 01:56:34;;;;;;;;;;;;;;;8.57;100.00;101762.06;5116845;27;19995;-69
2022/03/29 01:59:03;;;;;;;;;;;;;;;8.54;100.00;101764.78;5116281;27;20286;-68
2022/03/29 02:01:28;;;;;;;;;;;;;;;8.64;100.00;101755.75;5134768;27;19922;-68
2022/03/29 02:03:54;;;;;;;;;;;;;;;8.63;100.00;101750.50;5135190;27;19915;-69
2022/03/29 02:06:19;;;;;;;;;;;;;;;8.62;100.00;101754.06;5135082;27;19927;-68
2022/03/29 02:08:45;;;;;;;;;;;;;;;8.67;100.00;101745.09;5116332;27;19915;-68
2022/03/29 02:11:10;;;;;;;;;;;;;;;8.71;100.00;101740.63;5116234;27;20019;-69
2022/03/29 02:13:35;;;;;;;;;;;;;;;8.61;100.00;101739.94;5134830;27;19968;-68
2022/03/29 02:16:00;;;;;;;;;;;;;;;8.61;100.00;101737.28;5134361;27;20359;-69
2022/03/29 02:18:26;;;;;;;;;;;;;;;8.57;100.00;101730.28;5133418;27;19963;-69
2022/03/29 02:20:51;;;;;;;;;;;;;;;8.52;100.00;101731.31;5116148;27;20297;-70
2022/03/29 02:23:16;;;;;;;;;;;;;;;8.42;100.00;101727.97;5134378;27;19921;-69
2022/03/29 02:25:42;;;;;;;;;;;;;;;8.44;100.00;101726.19;5134574;27;19915;-68
2022/03/29 02:28:08;;;;;;;;;;;;;;;8.43;100.00;101724.41;5134359;27;19919;-69
2022/03/29 02:30:33;;;;;;;;;;;;;;;8.38;100.00;101721.00;5115691;27;19923;-69
2022/03/29 02:32:59;;;;;;;;;;;;;;;8.46;100.00;101716.41;5116131;28;19916;-68
2022/03/29 02:35:24;;;;;;;;;;;;;;;8.47;100.00;101717.28;5116102;28;19953;-69
2022/03/29 02:37:52;;;;;;;;;;;;;;;8.45;100.00;101711.16;5134734;27;19985;-68
2022/03/29 02:40:17;;;;;;;;;;;;;;;8.48;100.00;101713.72;5134966;27;19915;-69
2022/03/29 02:42:46;;;;;;;;;;;;;;;8.32;100.00;101705.22;5115947;28;20297;-68
2022/03/29 02:45:13;;;;;;;;;;;;;;;8.35;100.00;101699.00;5115962;28;19968;-68
2022/03/29 02:47:38;;;;;;;;;;;;;;;8.31;100.00;101694.66;5115800;28;19984;-68
2022/03/29 02:53:08;;;;;;;;;;;;;;;8.28;100.00;101690.31;5113388;28;19960;-68
2022/03/29 02:58:36;;;;;;;;;;;;;;;8.13;100.00;101689.72;5113859;28;19926;-70
2022/03/29 03:01:01;;;;;;;;;;;;;;;8.17;100.00;101692.28;5113519;28;19916;-69
2022/03/29 03:03:29;;;;;;;;;;;;;;;8.20;100.00;101689.56;5113414;28;20327;-70
2022/03/29 03:05:54;;;;;;;;;;;;;;;8.12;100.00;101678.25;5113489;28;19916;-70
2022/03/29 03:08:19;;;;;;;;;;;;;;;8.04;100.00;101674.00;5113569;28;19923;-69
2022/03/29 03:10:44;;;;;;;;;;;;;;;8.07;100.00;101677.47;5113617;28;20347;-70
2022/03/29 03:13:11;;;;;;;;;;;;;;;8.04;100.00;101672.22;5095167;28;20010;-69
2022/03/29 03:15:36;;;;;;;;;;;;;;;8.12;100.00;101680.91;5113838;28;20405;-69
2022/03/29 03:18:02;;;;;;;;;;;;;;;8.05;100.00;101678.41;5113587;28;19916;-70
2022/03/29 03:20:29;;;;;;;;;;;;;;;7.99;100.00;101674.09;5113390;28;20024;-69
2022/03/29 03:22:55;;;;;;;;;;;;;;;7.89;100.00;101667.25;5095189;28;20010;-70
2022/03/29 03:25:20;;;;;;;;;;;;;;;7.93;100.00;101666.28;5095078;28;19963;-71
2022/03/29 03:27:45;;;;;;;;;;;;;;;7.94;100.00;101670.69;5113326;28;19916;-70
2022/03/29 03:30:12;;;;;;;;;;;;;;;7.98;100.00;101672.34;5115881;28;19924;-70
2022/03/29 03:32:37;;;;;;;;;;;;;;;7.92;100.00;101666.31;5099032;28;19959;-69
2022/03/29 03:35:02;;;;;;;;;;;;;;;7.91;100.00;101660.13;5117251;28;19922;-70
2022/03/29 03:37:27;;;;;;;;;;;;;;;7.95;100.00;101659.19;5098842;28;19920;-69
2022/03/29 03:39:53;;;;;;;;;;;;;;;7.60;100.00;101661.59;5116958;28;19923;-69
2022/03/29 03:42:18;;;;;;;;;;;;;;;7.60;100.00;101654.56;5098915;28;19920;-69
2022/03/29 03:44:43;;;;;;;;;;;;;;;7.76;100.00;101644.56;5098919;28;19915;-69
2022/03/29 03:47:09;;;;;;;;;;;;;;;7.73;100.00;101650.78;5098979;28;19966;-69
2022/03/29 03:49:34;;;;;;;;;;;;;;;7.60;100.00;101643.09;5116887;28;20363;-69
2022/03/29 03:52:00;;;;;;;;;;;;;;;7.51;100.00;101641.50;5116752;28;20322;-69
2022/03/29 03:54:25;;;;;;;;;;;;;;;7.59;100.00;101634.31;5098458;28;20041;-70
2022/03/29 03:56:50;;;;;;;;;;;;;;;7.53;100.00;101631.75;5116926;28;19985;-69
2022/03/29 03:59:15;;;;;;;;;;;;;;;7.59;100.00;101636.06;5116785;28;19916;-69
2022/03/29 04:01:41;;;;;;;;;;;;;;;7.53;100.00;101630.91;5116969;28;20312;-70
2022/03/29 04:04:06;;;;;;;;;;;;;;;7.43;100.00;101619.63;5098941;28;19915;-70
2022/03/29 04:06:31;;;;;;;;;;;;;;;7.45;100.00;101630.16;5098504;28;19915;-72
2022/03/29 04:08:56;;;;;;;;;;;;;;;7.45;100.00;101627.53;5098071;27;19973;-72
2022/03/29 04:11:21;;;;;;;;;;;;;;;7.53;100.00;101622.97;5108896;27;19945;-72
2022/03/29 04:13:47;;;;;;;;;;;;;;;7.41;100.00;101620.53;5119002;27;20321;-71
2022/03/29 04:16:12;;;;;;;;;;;;;;;7.49;100.00;101627.44;5119602;27;19976;-71
2022/03/29 04:18:37;;;;;;;;;;;;;;;7.43;100.00;101618.72;5140510;27;20369;-69
2022/03/29 04:21:04;;;;;;;;;;;;;;;7.46;100.00;101613.38;5121897;27;19923;-70
2022/03/29 04:23:30;;;;;;;;;;;;;;;7.56;100.00;101618.47;5110824;27;19919;-71
2022/03/29 04:25:57;;;;;;;;;;;;;;;7.54;100.00;101619.41;5135247;27;20386;-71
2022/03/29 04:28:22;;;;;;;;;;;;;;;7.40;100.00;101616.16;5104770;27;20342;-71
2022/03/29 04:30:48;;;;;;;;;;;;;;;7.32;100.00;101618.06;5128020;27;20004;-72
2022/03/29 04:33:14;;;;;;;;;;;;;;;7.41;100.00;101615.25;5112101;27;19922;-68
2022/03/29 04:35:39;;;;;;;;;;;;;;;7.42;100.00;101619.66;5118184;27;19962;-68
2022/03/29 04:38:04;;;;;;;;;;;;;;;7.33;100.00;101622.41;5136738;27;19916;-68
2022/03/29 04:40:29;;;;;;;;;;;;;;;7.32;100.00;101620.69;5136028;27;20413;-68
2022/03/29 04:42:55;;;;;;;;;;;;;;;7.34;100.00;101621.53;5136077;27;19924;-69
2022/03/29 04:45:20;;;;;;;;;;;;;;;7.37;100.00;101622.38;5136370;27;19923;-69
2022/03/29 04:47:46;;;;;;;;;;;;;;;7.34;100.00;101619.75;5136424;27;19955;-69
2022/03/29 04:50:12;;;;;;;;;;;;;;;7.27;100.00;101626.06;5117744;27;19915;-69
2022/03/29 04:52:39;;;;;;;;;;;;;;;7.20;100.00;101620.91;5136189;27;20338;-69
2022/03/29 04:55:05;;;;;;;;;;;;;;;7.40;100.00;101629.34;5117756;27;20423;-68
2022/03/29 04:57:30;;;;;;;;;;;;;;;7.39;100.00;101628.47;5135923;27;19915;-69
2022/03/29 04:59:55;;;;;;;;;;;;;;;7.36;100.00;101625.00;5117367;27;19959;-69
2022/03/29 05:02:21;;;;;;;;;;;;;;;7.29;100.00;101616.34;5117404;27;19923;-68
2022/03/29 05:04:46;;;;;;;;;;;;;;;7.34;100.00;101619.75;5133085;27;20259;-68
2022/03/29 05:07:11;;;;;;;;;;;;;;;7.46;100.00;101606.34;5114554;27;19923;-68
2022/03/29 05:09:36;;;;;;;;;;;;;;;7.51;100.00;101617.72;5132619;27;19927;-68
2022/03/29 05:12:02;;;;;;;;;;;;;;;7.40;100.00;101617.03;5111412;27;20353;-68
2022/03/29 05:14:27;;;;;;;;;;;;;;;7.31;100.00;101617.16;5135611;27;19919;-69
2022/03/29 05:16:52;;;;;;;;;;;;;;;7.30;100.00;101612.78;5136657;27;19980;-68
2022/03/29 05:19:17;;;;;;;;;;;;;;;7.23;100.00;101612.94;5136545;27;19923;-69
2022/03/29 05:21:43;;;;;;;;;;;;;;;7.16;100.00;101611.28;5136076;27;20304;-69
2022/03/29 05:24:08;;;;;;;;;;;;;;;7.09;100.00;101607.00;5136378;27;20293;-72
2022/03/29 05:26:33;;;;;;;;;;;;;;;7.12;100.00;101607.81;5117606;27;19915;-70
2022/03/29 05:28:59;;;;;;;;;;;;;;;7.14;100.00;101620.97;5136001;27;20378;-72
2022/03/29 05:31:24;;;;;;;;;;;;;;;7.14;100.00;101608.66;5117175;27;20028;-69
2022/03/29 05:33:49;;;;;;;;;;;;;;;7.17;100.00;101616.53;5135673;27;19915;-69
2022/03/29 05:36:15;;;;;;;;;;;;;;;7.27;100.00;101622.53;5117263;27;19916;-69
2022/03/29 05:38:41;;;;;;;;;;;;;;;7.18;100.00;101623.56;5135707;27;19915;-70
2022/03/29 05:41:06;;;;;;;;;;;;;;;7.31;100.00;101622.44;5117134;27;19981;-76
2022/03/29 05:43:31;;;;;;;;;;;;;;;7.24;100.00;101617.31;5117249;27;20290;-69
2022/03/29 05:48:52;;;;;;;;;;;;;;;7.23;100.00;101631.41;5137109;27;20368;-70
2022/03/29 05:51:21;;;;;;;;;;;;;;;7.19;100.00;101624.44;5136365;27;19926;-70
2022/03/29 05:53:46;;;;;;;;;;;;;;;7.33;100.00;101633.00;5135692;27;20309;-69
2022/03/29 05:56:11;;;;;;;;;;;;;;;7.34;100.00;101640.88;5136544;27;19915;-72
2022/03/29 05:58:36;;;;;;;;;;;;;;;7.37;100.00;101647.91;5118198;27;19915;-78
2022/03/29 06:01:02;;;;;;;;;;;;;;;7.23;100.00;101645.47;5116436;27;19922;-69
2022/03/29 06:03:27;;;;;;;;;;;;;;;7.20;100.00;101642.88;5135874;27;19927;-69
2022/03/29 06:05:53;;;;;;;;;;;;;;;7.24;100.00;101639.31;5116451;27;19970;-69
2022/03/29 06:08:18;;;;;;;;;;;;;;;7.35;100.00;101649.69;5116478;27;19972;-68
2022/03/29 06:10:43;;;;;;;;;;;;;;;7.30;100.00;101646.25;5116483;27;19915;-68
2022/03/29 06:13:10;;;;;;;;;;;;;;;7.26;100.00;101641.94;5134621;27;19922;-69
2022/03/29 06:15:36;;;;;;;;;;;;;;;7.08;100.00;101635.19;5116150;27;19953;-68
2022/03/29 06:18:03;;;;;;;;;;;;;;;7.29;100.00;101633.97;5116037;27;19919;-69
2022/03/29 06:20:28;;;;;;;;;;;;;;;7.29;100.00;101626.03;5115850;27;20377;-69
2022/03/29 06:22:53;;;;;;;;;;;;;;;7.23;100.00;101626.13;5134412;27;19923;-69
2022/03/29 06:25:21;;;;;;;;;;;;;;;7.27;100.00;101626.06;5133601;27;20135;-68
2022/03/29 06:27:46;;;;;;;;;;;;;;;7.29;100.00;101626.91;5134472;27;19924;-68
2022/03/29 06:30:11;;;;;;;;;;;;;;;7.50;100.00;101625.66;5134775;27;19921;-69
2022/03/29 06:32:50;;;;;;;;;;;;;;;7.47;100.00;101615.13;5134565;27;20006;-68
2022/03/29 06:35:22;;;;;;;;;;;;;;;7.42;100.00;101617.84;5115752;27;19922;-69
2022/03/29 06:37:51;;;;;;;;;;;;;;;7.50;100.00;101612.47;5115749;27;19967;-69
2022/03/29 06:40:16;;;;;;;;;;;;;;;7.48;100.00;101614.25;5134073;27;20346;-69
2022/03/29 06:42:41;;;;;;;;;;;;;;;7.61;100.00;101621.06;5134268;28;19954;-69
2022/03/29 06:45:08;;;;;;;;;;;;;;;7.58;100.00;101610.53;5115788;28;19919;-68
2022/03/29 06:47:33;;;;;;;;;;;;;;;7.55;100.00;101605.28;5134101;28;20009;-68
2022/03/29 06:49:58;;;;;;;;;;;;;;;7.43;100.00;101597.59;5134272;28;19974;-69
2022/03/29 06:52:26;;;;;;;;;;;;;;;7.61;100.00;101597.28;5135252;28;19916;-69
2022/03/29 06:54:51;;;;;;;;;;;;;;;7.68;100.00;101601.53;5117530;28;20382;-69
2022/03/29 06:57:16;;;;;;;;;;;;;;;7.47;100.00;101591.34;5126315;28;19916;-69
2022/03/29 06:59:42;;;;;;;;;;;;;;;7.77;100.00;101593.41;5095188;28;20377;-69
2022/03/29 07:02:07;;;;;;;;;;;;;;;7.72;100.00;101595.31;5095118;28;20426;-69
2022/03/29 07:04:32;;;;;;;;;;;;;;;7.64;100.00;101590.13;5096736;28;19961;-69
2022/03/29 07:06:58;;;;;;;;;;;;;;;7.66;100.00;101590.97;5099621;28;20293;-70
2022/03/29 07:12:07;;;;;;;;;;;;;;;7.76;100.00;101584.63;5117493;28;19922;-68
2022/03/29 07:14:32;;;;;;;;;;;;;;;7.64;100.00;101582.19;5117320;28;19916;-69
2022/03/29 07:16:57;;;;;;;;;;;;;;;7.89;100.00;101587.03;5117854;28;20426;-69
2022/03/29 07:19:24;;;;;;;;;;;;;;;7.82;100.00;101587.16;5117487;28;20014;-69
2022/03/29 07:21:50;;;;;;;;;;;;;;;7.87;100.00;101575.59;5117518;28;19920;-69
2022/03/29 07:24:15;;;;;;;;;;;;;;;7.89;100.00;101577.31;5117465;28;19920;-69
2022/03/29 07:26:40;;;;;;;;;;;;;;;8.04;100.00;101581.41;5117519;28;20042;-69
2022/03/29 07:29:07;;;;;;;;;;;;;;;7.88;100.00;101575.56;5117180;28;19920;-69
2022/03/29 07:31:33;;;;;;;;;;;;;;;7.92;100.00;101576.38;5098780;28;20002;-69
2022/03/29 07:33:58;;;;;;;;;;;;;;;7.83;100.00;101578.31;5098928;28;20008;-69
2022/03/29 07:36:23;;;;;;;;;;;;;;;7.86;100.00;101577.38;5117178;28;19916;-69
2022/03/29 07:38:49;;;;;;;;;;;;;;;8.04;100.00;101571.72;5099130;28;19916;-69
2022/03/29 07:41:14;;;;;;;;;;;;;;;8.00;100.00;101570.03;5098865;28;19920;-69
2022/03/29 07:43:40;;;;;;;;;;;;;;;7.95;100.00;101563.09;5098449;28;19959;-69
2022/03/29 07:46:05;;;;;;;;;;;;;;;8.06;100.00;101563.75;5116581;28;19916;-69
2022/03/29 07:48:30;;;;;;;;;;;;;;;8.24;100.00;101569.53;5098139;28;20010;-69
2022/03/29 07:50:55;;;;;;;;;;;;;;;8.15;100.00;101564.41;5098719;28;19923;-69
2022/03/29 07:53:22;;;;;;;;;;;;;;;8.17;100.00;101567.91;5098618;28;19938;-69
2022/03/29 07:55:48;;;;;;;;;;;;;;;8.17;100.00;101567.91;5098573;28;19961;-69
2022/03/29 07:58:13;;;;;;;;;;;;;;;8.22;100.00;101571.34;5116776;28;19951;-69
2022/03/29 08:00:39;;;;;;;;;;;;;;;8.16;100.00;101568.81;5116760;28;19916;-69
2022/03/29 08:03:06;;;;;;;;;;;;;;;8.20;100.00;101566.97;5098221;28;19916;-69
2022/03/29 08:05:32;;;;;;;;;;;;;;;8.25;100.00;101571.31;5116675;28;19915;-69
2022/03/29 08:07:58;;;;;;;;;;;;;;;8.39;100.00;101571.88;5098308;28;19927;-69
2022/03/29 08:10:23;;;;;;;;;;;;;;;8.37;100.00;101565.72;5116661;28;19916;-69
2022/03/29 08:12:48;;;;;;;;;;;;;;;8.60;100.00;101557.28;5116409;28;19923;-69
2022/03/29 08:15:14;;;;;;;;;;;;;;;8.80;100.00;101561.19;5115890;28;19999;-69
2022/03/29 08:17:39;;;;;;;;;;;;;;;8.68;100.00;101560.63;5115732;28;19916;-69
2022/03/29 08:20:05;;;;;;;;;;;;;;;8.67;100.00;101551.78;5098012;28;20382;-68
2022/03/29 08:22:34;;;;;;;;;;;;;;;8.94;100.00;101551.13;5116178;28;19915;-69
2022/03/29 08:25:00;;;;;;;;;;;;;;;8.96;100.00;101556.41;5098024;28;19915;-69
2022/03/29 08:27:25;;;;;;;;;;;;;;;8.99;100.00;101551.00;5097848;28;20389;-69
2022/03/29 08:29:51;;;;;;;;;;;;;;;9.05;100.00;101548.22;5116185;28;20277;-70
2022/03/29 08:32:16;;;;;;;;;;;;;;;9.18;100.00;101549.66;5097951;28;19965;-69
2022/03/29 08:34:42;;;;;;;;;;;;;;;9.12;100.00;101547.16;5115866;28;19998;-70
2022/03/29 08:37:07;;;;;;;;;;;;;;;9.26;100.00;101551.16;5115660;28;20015;-70
2022/03/29 08:39:32;;;;;;;;;;;;;;;9.22;100.00;101544.22;5097737;28;19959;-70
2022/03/29 08:42:10;;;;;;;;;;;;;;;9.38;100.00;101544.69;5097653;28;19927;-69
2022/03/29 08:44:37;;;;;;;;;;;;;;;9.26;100.00;101545.88;5097490;28;20306;-70
2022/03/29 08:47:05;;;;;;;;;;;;;;;9.24;100.00;101542.41;5097620;28;19964;-69
2022/03/29 08:49:31;;;;;;;;;;;;;;;9.16;100.00;101535.56;5115855;28;20003;-70
2022/03/29 08:51:57;;;;;;;;;;;;;;;9.34;100.00;101537.75;5115891;28;19916;-70
2022/03/29 08:54:22;;;;;;;;;;;;;;;9.48;100.00;101537.34;5115461;28;19923;-70
2022/03/29 08:56:47;;;;;;;;;;;;;;;9.37;100.00;101536.78;5115728;28;19919;-70
2022/03/29 08:59:13;;;;;;;;;;;;;;;9.08;100.00;101540.19;5115783;28;19915;-70
2022/03/29 09:01:38;;;;;;;;;;;;;;;9.32;100.00;101539.56;5080262;28;20332;-70
2022/03/29 09:04:06;;;;;;;;;;;;;;;9.46;100.00;101547.13;5115615;28;19923;-69
2022/03/29 09:06:31;;;;;;;;;;;;;;;9.92;100.00;101534.34;5115830;28;19916;-69
2022/03/29 09:08:57;;;;;;;;;;;;;;;9.90;100.00;101533.50;5098346;28;19987;-70
2022/03/29 09:11:22;;;;;;;;;;;;;;;10.24;100.00;101539.59;5098086;28;20010;-69
2022/03/29 09:14:01;;;;;;;;;;;;;;;9.76;100.00;101530.38;5115586;28;19927;-70
2022/03/29 09:16:30;;;;;;;;;;;;;;;9.86;100.00;101526.56;5115162;28;19915;-69
2022/03/29 09:18:56;;;;;;;;;;;;;;;9.63;100.00;101521.03;5093779;28;19927;-69
2022/03/29 09:21:21;;;;;;;;;;;;;;;9.76;100.00;101519.75;5094876;28;19916;-69
2022/03/29 09:24:22;;;;;;;;;;;;;;;9.81;100.00;101516.06;5093554;28;19961;-69
2022/03/29 09:26:52;;;;;;;;;;;;;;;9.48;100.00;101519.69;5072162;28;20015;-69
2022/03/29 09:29:17;;;;;;;;;;;;;;;9.49;100.00;101515.22;5086303;28;19923;-69
2022/03/29 09:31:43;;;;;;;;;;;;;;;9.67;100.00;101523.56;5094524;28;19928;-70
2022/03/29 09:34:09;;;;;;;;;;;;;;;9.81;100.00;101531.13;5095099;28;19927;-70
2022/03/29 09:36:46;;;;;;;;;;;;;;;10.07;100.00;101521.50;5093123;28;20303;-69
2022/03/29 09:39:30;;;;;;;;;;;;;;;10.11;100.00;101528.47;5094865;28;19916;-69
2022/03/29 09:42:04;;;;;;;;;;;;;;;10.22;100.00;101525.50;5094819;28;20432;-69
2022/03/29 09:44:44;;;;;;;;;;;;;;;10.24;100.00;101527.19;5094799;28;19993;-70
2022/03/29 09:47:10;;;;;;;;;;;;;;;10.43;100.00;101519.53;5093455;28;19916;-69
2022/03/29 09:49:52;;;;;;;;;;;;;;;10.39;100.00;101512.56;5094467;28;19938;-70
2022/03/29 09:52:18;;;;;;;;;;;;;;;10.54;100.00;101512.09;5093078;28;19963;-69
2022/03/29 09:55:04;;;;;;;;;;;;;;;10.27;100.00;101512.97;5093314;28;19952;-69
2022/03/29 09:57:33;;;;;;;;;;;;;;;10.55;100.00;101508.50;5099824;28;19927;-70
2022/03/29 09:59:58;;;;;;;;;;;;;;;10.38;100.00;101501.06;5114672;28;20267;-69
2022/03/29 10:02:31;;;;;;;;;;;;;;;10.61;100.00;101501.22;5114358;27;19922;-70
2022/03/29 10:04:57;;;;;;;;;;;;;;;10.65;100.00;101494.03;5113676;28;19916;-69
2022/03/29 10:07:22;;;;;;;;;;;;;;;10.90;100.00;101497.63;5114774;28;19939;-69
2022/03/29 10:09:47;;;;;;;;;;;;;;;11.06;100.00;101490.88;5114747;28;20019;-69
2022/03/29 10:12:13;;;;;;;;;;;;;;;11.28;100.00;101490.97;5114319;28;20390;-70
2022/03/29 10:14:41;;;;;;;;;;;;;;;11.26;100.00;101487.50;5113036;28;19919;-69
2022/03/29 10:17:07;;;;;;;;;;;;;;;11.51;100.00;101478.59;5112982;28;19965;-69
2022/03/29 10:19:33;;;;;;;;;;;;;;;11.50;100.00;101482.19;5125420;27;19919;-69
2022/03/29 10:21:58;;;;;;;;;;;;;;;11.41;100.00;101479.84;5134801;27;19995;-69
2022/03/29 10:24:24;;;;;;;;;;;;;;;11.70;100.00;101474.38;5116668;27;20346;-69
2022/03/29 10:26:50;;;;;;;;;;;;;;;11.54;100.00;101466.97;5116251;27;19915;-69
2022/03/29 10:29:16;;;;;;;;;;;;;;;11.35;100.00;101477.41;5116463;27;19916;-70
2022/03/29 10:31:51;;;;;;;;;;;;;;;11.08;100.00;101480.19;5116351;27;19916;-69
2022/03/29 10:34:16;;;;;;;;;;;;;;;11.02;100.00;101483.03;5134751;27;19915;-70
2022/03/29 10:37:00;;;;;;;;;;;;;;;10.93;100.00;101489.53;5134553;27;19923;-69
2022/03/29 10:39:45;;;;;;;;;;;;;;;11.07;100.00;101475.75;5133951;27;19923;-69
2022/03/29 10:42:19;;;;;;;;;;;;;;;10.79;100.00;101478.50;5134789;27;19916;-69
2022/03/29 10:44:56;;;;;;;;;;;;;;;10.50;100.00;101482.09;5116450;28;19916;-70
2022/03/29 10:47:28;;;;;;;;;;;;;;;10.70;100.00;101473.47;5134952;28;20389;-69
2022/03/29 10:49:54;;;;;;;;;;;;;;;10.72;100.00;101471.63;5134658;28;19922;-70
2022/03/29 10:52:22;;;;;;;;;;;;;;;11.26;100.00;101472.41;5134301;28;19915;-70
2022/03/29 10:54:47;;;;;;;;;;;;;;;11.77;100.00;101470.53;5134128;28;19916;-70
2022/03/29 10:57:28;;;;;;;;;;;;;;;11.60;100.00;101466.72;5126500;28;19922;-70
2022/03/29 11:00:12;;;;;;;;;;;;;;;11.86;100.00;101467.56;5113654;28;20294;-70
2022/03/29 11:02:38;;;;;;;;;;;;;;;11.99;100.00;101454.63;5113586;28;19916;-69
2022/03/29 11:05:07;;;;;;;;;;;;;;;12.01;100.00;101453.63;5113506;28;19916;-69
2022/03/29 11:07:39;;;;;;;;;;;;;;;11.54;100.00;101448.34;5113432;28;19923;-70
2022/03/29 11:10:11;;;;;;;;;;;;;;;11.84;100.00;101445.44;5095129;28;19916;-70
2022/03/29 11:12:38;;;;;;;;;;;;;;;11.70;100.00;101446.88;5113410;28;20422;-70
2022/03/29 11:15:21;;;;;;;;;;;;;;;12.09;100.00;101432.03;5113368;28;20367;-70
2022/03/29 11:17:47;;;;;;;;;;;;;;;12.05;100.00;101431.28;5113537;28;19928;-70
2022/03/29 11:20:29;;;;;;;;;;;;;;;12.22;100.00;101431.50;5113452;28;20259;-70
2022/03/29 11:22:59;;;;;;;;;;;;;;;11.74;100.00;101428.06;5113263;28;19916;-70
2022/03/29 11:25:24;;;;;;;;;;;;;;;12.10;100.00;101420.47;5113173;28;20006;-70
2022/03/29 11:27:50;;;;;;;;;;;;;;;11.92;100.00;101416.72;5113335;28;19959;-70
2022/03/29 11:30:15;;;;;;;;;;;;;;;12.28;100.00;101417.94;5094909;28;19969;-70
2022/03/29 11:32:42;;;;;;;;;;;;;;;12.52;100.00;101412.53;5116148;28;19916;-70
2022/03/29 11:35:08;;;;;;;;;;;;;;;12.38;100.00;101405.97;5096256;28;19960;-70
2022/03/29 11:37:37;;;;;;;;;;;;;;;12.60;100.00;101410.41;5094924;28;20359;-70
2022/03/29 11:40:03;;;;;;;;;;;;;;;12.41;100.00;101398.78;5113105;28;19916;-70
2022/03/29 11:42:55;;;;;;;;;;;;;;;12.20;100.00;101393.41;5112998;28;20375;-70
2022/03/29 11:45:21;;;;;;;;;;;;;;;12.60;100.00;101383.75;5109886;28;19926;-70
2022/03/29 11:48:00;;;;;;;;;;;;;;;12.45;100.00;101374.59;5113026;28;20446;-70
2022/03/29 11:50:28;;;;;;;;;;;;;;;12.96;100.00;101375.06;5113995;28;19927;-70
2022/03/29 11:52:53;;;;;;;;;;;;;;;13.35;100.00;101365.28;5098396;28;19923;-69
2022/03/29 11:55:19;;;;;;;;;;;;;;;13.66;100.00;101367.41;5116658;28;19916;-70
2022/03/29 11:57:44;;;;;;;;;;;;;;;14.74;100.00;101355.78;5110357;27;20282;-70
2022/03/29 12:00:23;;;;;;;;;;;;;;;15.68;100.00;101344.44;5137233;27;19926;-70
2022/03/29 12:02:49;;;;;;;;;;;;;;;16.86;100.00;101338.38;5137286;27;19923;-70
2022/03/29 12:05:21;;;;;;;;;;;;;;;16.91;100.00;101322.88;5118348;27;20362;-70
2022/03/29 12:07:46;;;;;;;;;;;;;;;18.37;100.00;101324.13;5101797;27;19927;-70
2022/03/29 12:10:13;;;;;;;;;;;;;;;19.15;100.00;101324.06;5118422;27;19922;-69
2022/03/29 12:12:38;;;;;;;;;;;;;;;18.98;100.00;101321.69;5137099;27;20010;-71
2022/03/29 12:15:04;;;;;;;;;;;;;;;18.59;100.00;101313.69;5136855;27;19958;-69
2022/03/29 12:17:30;;;;;;;;;;;;;;;18.44;100.00;101311.16;5118460;27;19919;-69
2022/03/29 12:19:56;;;;;;;;;;;;;;;17.83;100.00;101311.63;5137189;27;20381;-69
2022/03/29 12:22:23;;;;;;;;;;;;;;;17.52;100.00;101299.31;5136724;27;20396;-70
2022/03/29 12:24:54;;;;;;;;;;;;;;;17.38;100.00;101295.78;5118384;27;20025;-70
2022/03/29 12:27:20;;;;;;;;;;;;;;;16.48;100.00;101278.16;5136799;27;19915;-70
2022/03/29 12:29:48;;;;;;;;;;;;;;;16.97;100.00;101273.34;5136576;27;19915;-70
2022/03/29 12:32:13;;;;;;;;;;;;;;;17.30;100.00;101269.38;5136604;27;20001;-70
2022/03/29 12:34:38;;;;;;;;;;;;;;;17.55;100.00;101271.41;5118196;27;19950;-69
2022/03/29 12:37:05;;;;;;;;;;;;;;;17.35;100.00;101261.91;5118150;27;20030;-70
2022/03/29 12:39:31;;;;;;;;;;;;;;;17.44;100.00;101268.53;5118026;27;20339;-69
2022/03/29 12:41:56;;;;;;;;;;;;;;;17.10;100.00;101255.53;5136431;27;19915;-69
2022/03/29 12:44:48;;;;;;;;;;;;;;;17.06;100.00;101256.66;5136407;27;20267;-70
2022/03/29 12:47:15;;;;;;;;;;;;;;;16.89;100.00;101246.13;5113992;27;19916;-70
2022/03/29 12:49:41;;;;;;;;;;;;;;;17.21;100.00;101239.59;5136543;27;19916;-70